createdAt,value
2023-03-11T00:00:19.522Z,8.61
2023-03-11T00:02:47.721Z,8.39
2023-03-11T00:05:20.332Z,8.24
2023-03-11T00:07:47.018Z,8.15
2023-03-11T00:10:35.450Z,8.15
2023-03-11T00:13:02.488Z,8.13
2023-03-11T00:15:30.188Z,8.18
2023-03-11T00:17:57.662Z,8.22
2023-03-11T00:20:39.027Z,8.16
2023-03-11T00:23:07.623Z,7.86
2023-03-11T00:25:36.407Z,8.33
2023-03-11T00:28:04.592Z,8.42
2023-03-11T00:30:31.213Z,8.41
2023-03-11T00:32:58.752Z,8.36
2023-03-11T00:35:30.802Z,8.41
2023-03-11T00:38:00.397Z,8.53
2023-03-11T00:40:29.837Z,8.53
2023-03-11T00:42:57.124Z,8.49
2023-03-11T00:45:24.223Z,8.41
2023-03-11T00:47:52.180Z,8.39
2023-03-11T00:50:25.369Z,8.40
2023-03-11T00:52:53.122Z,8.43
2023-03-11T00:55:25.269Z,8.46
2023-03-11T00:57:57.142Z,8.44
2023-03-11T01:00:25.491Z,8.54
2023-03-11T01:02:54.145Z,8.61
2023-03-11T01:05:24.137Z,8.62
2023-03-11T01:07:50.780Z,8.53
2023-03-11T01:10:18.320Z,8.55
2023-03-11T01:12:45.000Z,8.51
2023-03-11T01:15:22.901Z,8.45
2023-03-11T01:17:49.650Z,8.44
2023-03-11T01:20:16.601Z,8.33
2023-03-11T01:22:43.271Z,8.15
2023-03-11T01:25:13.445Z,8.05
2023-03-11T01:27:40.160Z,8.02
2023-03-11T01:30:07.700Z,7.81
2023-03-11T01:32:34.575Z,7.90
2023-03-11T01:35:01.240Z,7.81
2023-03-11T01:37:27.870Z,7.87
2023-03-11T01:39:54.456Z,7.78
2023-03-11T01:42:21.076Z,7.79
2023-03-11T01:44:47.677Z,7.88
2023-03-11T01:47:14.256Z,7.88
2023-03-11T01:49:42.206Z,8.03
2023-03-11T01:52:09.829Z,8.29
2023-03-11T01:54:40.929Z,8.46
2023-03-11T01:57:12.468Z,8.49
2023-03-11T01:59:52.124Z,8.73
2023-03-11T02:03:01.781Z,8.76
2023-03-11T02:05:28.673Z,8.71
2023-03-11T02:07:56.129Z,8.58
2023-03-11T02:10:22.775Z,8.51
2023-03-11T02:12:51.120Z,8.51
2023-03-11T02:15:18.449Z,8.51
2023-03-11T02:17:45.376Z,8.59
2023-03-11T02:20:28.027Z,8.50
2023-03-11T02:22:57.285Z,8.44
2023-03-11T02:25:36.091Z,8.26
2023-03-11T02:28:07.553Z,8.20
2023-03-11T02:30:35.216Z,8.29
2023-03-11T02:33:02.478Z,8.42
2023-03-11T02:35:30.159Z,8.49
2023-03-11T02:37:57.407Z,8.54
2023-03-11T02:40:24.060Z,8.51
2023-03-11T02:42:53.824Z,8.42
2023-03-11T02:45:24.239Z,8.43
2023-03-11T02:47:52.793Z,8.38
2023-03-11T02:50:19.711Z,8.49
2023-03-11T02:52:49.218Z,8.49
2023-03-11T02:55:18.047Z,8.52
2023-03-11T02:57:45.353Z,8.56
2023-03-11T03:00:16.737Z,8.54
2023-03-11T03:02:45.235Z,8.64
2023-03-11T03:05:13.255Z,8.71
2023-03-11T03:07:39.893Z,8.77
2023-03-11T03:10:09.041Z,8.68
2023-03-11T03:12:35.718Z,8.87
2023-03-11T03:15:02.326Z,8.99
2023-03-11T03:17:28.965Z,9.09
2023-03-11T03:19:55.599Z,9.20
2023-03-11T03:22:24.188Z,9.29
2023-03-11T03:24:50.829Z,9.32
2023-03-11T03:27:17.596Z,9.23
2023-03-11T03:29:44.258Z,9.21
2023-03-11T03:32:10.943Z,9.20
2023-03-11T03:34:37.547Z,9.25
2023-03-11T03:37:04.181Z,9.21
2023-03-11T03:39:31.126Z,9.25
2023-03-11T03:41:57.788Z,9.23
2023-03-11T03:44:24.439Z,9.32
2023-03-11T03:46:51.125Z,9.30
2023-03-11T03:49:17.768Z,9.32
2023-03-11T03:51:44.420Z,9.22
2023-03-11T03:54:11.098Z,9.18
2023-03-11T03:56:37.686Z,9.21
2023-03-11T03:59:04.341Z,9.18
2023-03-11T04:01:30.959Z,9.20
2023-03-11T04:03:57.621Z,9.08
2023-03-11T04:06:26.590Z,9.06
2023-03-11T04:08:53.952Z,9.04
2023-03-11T04:11:21.542Z,9.22
2023-03-11T04:13:48.801Z,9.24
2023-03-11T04:16:19.937Z,9.33
2023-03-11T04:18:47.084Z,9.51
2023-03-11T04:21:14.018Z,9.44
2023-03-11T04:23:40.749Z,9.42
2023-03-11T04:26:07.469Z,9.37
2023-03-11T04:28:34.083Z,9.63
2023-03-11T04:31:00.804Z,9.62
2023-03-11T04:33:27.569Z,9.62
2023-03-11T04:35:54.345Z,9.60
2023-03-11T04:38:20.953Z,9.57
2023-03-11T04:40:47.503Z,9.58
2023-03-11T04:43:14.073Z,9.61
2023-03-11T04:45:42.464Z,9.49
2023-03-11T04:48:09.540Z,9.39
2023-03-11T04:50:36.343Z,9.31
2023-03-11T04:53:03.457Z,9.43
2023-03-11T04:55:30.300Z,9.48
2023-03-11T04:57:56.889Z,9.58
2023-03-11T05:00:25.175Z,9.66
2023-03-11T05:02:52.672Z,9.71
2023-03-11T05:05:20.145Z,9.79
2023-03-11T05:07:47.365Z,9.80
2023-03-11T05:10:14.788Z,9.85
2023-03-11T05:12:41.391Z,9.78
2023-03-11T05:15:08.258Z,9.77
2023-03-11T05:17:34.846Z,9.69
2023-03-11T05:20:01.428Z,9.56
2023-03-11T05:22:28.191Z,9.55
2023-03-11T05:24:54.897Z,9.66
2023-03-11T05:27:21.559Z,9.59
2023-03-11T05:29:48.202Z,9.67
2023-03-11T05:32:15.071Z,9.77
2023-03-11T05:34:42.360Z,9.79
2023-03-11T05:37:09.251Z,9.62
2023-03-11T05:39:37.779Z,9.58
2023-03-11T05:42:05.894Z,9.58
2023-03-11T05:44:32.952Z,9.49
2023-03-11T05:46:59.862Z,9.42
2023-03-11T05:49:26.806Z,9.52
2023-03-11T05:51:58.685Z,9.44
2023-03-11T05:54:25.621Z,9.34
2023-03-11T05:56:52.270Z,9.32
2023-03-11T05:59:19.950Z,9.44
2023-03-11T06:01:46.574Z,9.53
2023-03-11T06:04:13.543Z,9.51
2023-03-11T06:06:41.621Z,9.42
2023-03-11T06:09:12.406Z,9.34
2023-03-11T06:11:38.969Z,9.37
2023-03-11T06:14:05.681Z,9.24
2023-03-11T06:16:32.354Z,9.27
2023-03-11T06:19:00.915Z,9.35
2023-03-11T06:21:27.633Z,9.28
2023-03-11T06:23:54.351Z,9.25
2023-03-11T06:26:23.021Z,9.29
2023-03-11T06:28:51.478Z,9.24
2023-03-11T06:31:27.290Z,9.22
2023-03-11T06:33:57.106Z,9.27
2023-03-11T06:36:23.986Z,9.37
2023-03-11T06:38:54.634Z,9.40
2023-03-11T06:41:21.217Z,9.34
2023-03-11T06:43:47.952Z,9.36
2023-03-11T06:46:20.650Z,9.39
2023-03-11T06:48:47.942Z,9.37
2023-03-11T06:51:14.845Z,9.41
2023-03-11T06:53:41.479Z,9.40
2023-03-11T06:56:12.964Z,9.50
2023-03-11T06:58:41.552Z,9.69
2023-03-11T07:01:14.455Z,9.83
2023-03-11T07:03:41.871Z,9.88
2023-03-11T07:06:17.943Z,9.92
2023-03-11T07:08:46.864Z,9.95
2023-03-11T07:11:16.518Z,9.98
2023-03-11T07:13:43.803Z,9.98
2023-03-11T07:16:19.559Z,10.08
2023-03-11T07:18:49.011Z,10.18
2023-03-11T07:21:18.871Z,10.31
2023-03-11T07:23:46.056Z,10.34
2023-03-11T07:26:15.356Z,10.27
2023-03-11T07:28:43.072Z,10.36
2023-03-11T07:31:12.423Z,10.37
2023-03-11T07:33:39.050Z,10.33
2023-03-11T07:36:14.117Z,10.47
2023-03-11T07:38:41.857Z,10.56
2023-03-11T07:41:11.177Z,10.76
2023-03-11T07:43:38.814Z,10.97
2023-03-11T07:46:05.557Z,11.30
2023-03-11T07:48:32.147Z,11.67
2023-03-11T07:51:20.062Z,12.00
2023-03-11T07:53:47.745Z,12.12
2023-03-11T07:56:16.504Z,11.80
2023-03-11T07:58:45.726Z,11.68
2023-03-11T08:01:23.973Z,11.82
2023-03-11T08:03:56.975Z,11.95
2023-03-11T08:06:27.108Z,11.96
2023-03-11T08:08:53.920Z,11.92
2023-03-11T08:11:21.498Z,11.72
2023-03-11T08:13:48.987Z,11.88
2023-03-11T08:16:17.896Z,12.07
2023-03-11T08:18:46.092Z,12.11
2023-03-11T08:21:17.460Z,12.16
2023-03-11T08:23:46.116Z,12.17
2023-03-11T08:26:18.806Z,12.04
2023-03-11T08:28:46.436Z,12.25
2023-03-11T08:31:22.040Z,12.69
2023-03-11T08:33:50.292Z,12.68
2023-03-11T08:36:17.748Z,12.45
2023-03-11T08:38:44.390Z,12.45
2023-03-11T08:41:11.202Z,12.35
2023-03-11T08:43:38.075Z,12.41
2023-03-11T08:46:09.466Z,12.59
2023-03-11T08:48:37.130Z,12.80
2023-03-11T08:51:12.388Z,12.90
2023-03-11T08:53:39.439Z,12.91
2023-03-11T08:56:06.572Z,12.92
2023-03-11T08:58:33.422Z,12.97
2023-03-11T09:01:00.319Z,13.38
2023-03-11T09:03:26.892Z,13.50
2023-03-11T09:05:58.637Z,13.63
2023-03-11T09:08:25.992Z,13.42
2023-03-11T09:10:52.564Z,13.18
2023-03-11T09:13:19.242Z,13.25
2023-03-11T09:15:45.936Z,13.32
2023-03-11T09:18:13.941Z,13.34
2023-03-11T09:20:41.709Z,13.57
2023-03-11T09:23:10.285Z,13.64
2023-03-11T09:25:36.912Z,13.86
2023-03-11T09:28:04.013Z,13.99
2023-03-11T09:30:31.069Z,14.04
2023-03-11T09:32:57.733Z,14.07
2023-03-11T09:35:24.562Z,13.89
2023-03-11T09:37:51.539Z,13.95
2023-03-11T09:40:22.807Z,13.68
2023-03-11T09:43:25.460Z,13.49
2023-03-11T09:46:21.415Z,13.51
2023-03-11T09:49:07.549Z,13.41
2023-03-11T09:51:42.243Z,13.55
2023-03-11T09:54:13.045Z,13.99
2023-03-11T09:56:44.464Z,13.97
2023-03-11T09:59:36.942Z,14.36
2023-03-11T10:02:04.997Z,14.63
2023-03-11T10:04:44.995Z,14.37
2023-03-11T10:07:22.285Z,14.03
2023-03-11T10:09:54.597Z,14.24
2023-03-11T10:12:39.412Z,14.25
2023-03-11T10:15:27.903Z,14.09
2023-03-11T10:18:16.327Z,14.32
2023-03-11T10:20:55.378Z,14.05
2023-03-11T10:23:35.912Z,14.12
2023-03-11T10:26:29.817Z,14.23
2023-03-11T10:29:07.716Z,14.24
2023-03-11T10:31:46.695Z,14.27
2023-03-11T10:34:13.978Z,14.36
2023-03-11T10:36:58.736Z,13.74
2023-03-11T10:39:26.872Z,13.94
2023-03-11T10:41:57.454Z,14.05
2023-03-11T10:44:45.344Z,13.61
2023-03-11T10:47:24.345Z,13.58
2023-03-11T10:49:52.667Z,13.19
2023-03-11T10:52:20.241Z,12.43
2023-03-11T10:54:58.539Z,12.19
2023-03-11T10:57:28.450Z,12.02
2023-03-11T10:59:58.062Z,12.07
2023-03-11T11:02:33.234Z,12.16
2023-03-11T11:05:18.026Z,12.37
2023-03-11T11:07:46.502Z,12.54
2023-03-11T11:10:26.057Z,12.59
2023-03-11T11:12:52.664Z,12.61
2023-03-11T11:15:41.209Z,12.75
2023-03-11T11:18:19.386Z,13.28
2023-03-11T11:21:17.450Z,13.67
2023-03-11T11:23:48.809Z,13.90
2023-03-11T11:26:15.447Z,14.00
2023-03-11T11:28:42.168Z,14.12
2023-03-11T11:31:23.001Z,14.05
2023-03-11T11:33:55.368Z,14.18
2023-03-11T11:36:24.433Z,14.34
2023-03-11T11:38:57.074Z,14.45
2023-03-11T11:41:26.308Z,14.50
2023-03-11T11:43:56.056Z,14.45
2023-03-11T11:46:31.323Z,14.32
2023-03-11T11:49:17.061Z,14.63
2023-03-11T11:52:00.551Z,14.77
2023-03-11T11:54:38.624Z,14.95
2023-03-11T11:57:15.405Z,14.94
2023-03-11T11:59:44.085Z,14.82
2023-03-11T12:02:43.552Z,14.80
2023-03-11T12:05:30.437Z,14.61
2023-03-11T12:07:59.924Z,15.08
2023-03-11T12:10:27.062Z,15.01
2023-03-11T12:13:20.200Z,14.84
2023-03-11T12:15:51.943Z,14.79
2023-03-11T12:18:28.320Z,14.29
2023-03-11T12:20:58.709Z,14.40
2023-03-11T12:23:43.204Z,14.23
2023-03-11T12:26:19.179Z,14.27
2023-03-11T12:28:50.110Z,14.38
2023-03-11T12:31:17.126Z,14.34
2023-03-11T12:33:49.070Z,14.41
2023-03-11T12:36:35.054Z,14.70
2023-03-11T12:39:06.133Z,14.52
2023-03-11T12:41:41.963Z,14.48
2023-03-11T12:44:29.090Z,14.64
2023-03-11T12:46:58.835Z,14.56
2023-03-11T12:49:46.681Z,14.30
2023-03-11T12:52:15.865Z,14.22
2023-03-11T12:55:02.687Z,14.19
2023-03-11T12:57:40.591Z,13.93
2023-03-11T13:00:26.838Z,13.65
2023-03-11T13:03:08.320Z,13.85
2023-03-11T13:05:52.924Z,13.71
2023-03-11T13:08:22.779Z,13.54
2023-03-11T13:10:51.742Z,13.27
2023-03-11T13:13:31.128Z,12.71
2023-03-11T13:16:18.587Z,12.47
2023-03-11T13:18:47.801Z,11.87
2023-03-11T13:21:32.694Z,11.44
2023-03-11T13:24:27.308Z,10.78
2023-03-11T13:26:59.730Z,10.54
2023-03-11T13:29:52.487Z,10.20
2023-03-11T13:32:27.887Z,9.87
2023-03-11T13:35:35.910Z,9.24
2023-03-11T13:38:24.043Z,8.93
2023-03-11T13:40:52.606Z,8.77
2023-03-11T13:43:22.199Z,8.72
2023-03-11T13:45:55.372Z,8.71
2023-03-11T13:48:31.035Z,8.81
2023-03-11T13:51:16.310Z,8.95
2023-03-11T13:54:20.226Z,9.09
2023-03-11T13:56:52.402Z,9.13
2023-03-11T13:59:35.218Z,9.18
2023-03-11T14:02:07.170Z,9.32
2023-03-11T14:04:37.442Z,9.43
2023-03-11T14:07:19.646Z,9.55
2023-03-11T14:09:46.346Z,9.60
2023-03-11T14:12:13.929Z,9.66
2023-03-11T14:14:54.186Z,9.72
2023-03-11T14:17:21.409Z,9.83
2023-03-11T14:20:04.725Z,9.83
2023-03-11T14:22:32.071Z,9.74
2023-03-11T14:25:02.444Z,9.72
2023-03-11T14:27:30.167Z,9.85
2023-03-11T14:29:56.887Z,9.87
2023-03-11T14:32:31.478Z,9.78
2023-03-11T14:34:58.717Z,9.71
2023-03-11T14:37:39.060Z,9.62
2023-03-11T14:40:27.784Z,9.72
2023-03-11T14:42:57.480Z,9.61
2023-03-11T14:45:28.561Z,9.82
2023-03-11T14:48:05.696Z,9.81
2023-03-11T14:50:35.256Z,9.73
2023-03-11T14:53:10.053Z,9.76
2023-03-11T14:55:40.519Z,9.68
2023-03-11T14:58:19.315Z,9.65
2023-03-11T15:00:56.014Z,9.58
2023-03-11T15:03:31.085Z,9.42
2023-03-11T15:06:08.717Z,9.23
2023-03-11T15:08:47.141Z,9.07
2023-03-11T15:11:13.752Z,8.80
2023-03-11T15:13:43.145Z,8.71
2023-03-11T15:16:37.616Z,8.75
2023-03-11T15:19:26.063Z,8.79
2023-03-11T15:21:58.540Z,8.75
2023-03-11T15:24:31.346Z,8.84
2023-03-11T15:27:07.470Z,8.93
2023-03-11T15:29:36.361Z,8.82
2023-03-11T15:32:40.440Z,8.78
2023-03-11T15:35:12.891Z,8.63
2023-03-11T15:37:41.197Z,8.54
2023-03-11T15:40:11.777Z,8.57
2023-03-11T15:42:38.696Z,8.53
2023-03-11T15:45:16.421Z,8.30
2023-03-11T15:47:43.795Z,8.23
2023-03-11T15:50:25.264Z,8.09
2023-03-11T15:52:53.858Z,7.97
2023-03-11T15:55:20.771Z,7.77
2023-03-11T15:57:48.853Z,7.63
2023-03-11T16:00:22.274Z,7.57
2023-03-11T16:02:52.529Z,7.48
2023-03-11T16:05:21.827Z,7.33
2023-03-11T16:07:50.265Z,7.20
2023-03-11T16:10:22.021Z,7.06
2023-03-11T16:12:49.886Z,6.98
2023-03-11T16:15:29.432Z,6.94
2023-03-11T16:17:59.389Z,6.83
2023-03-11T16:20:32.715Z,6.71
2023-03-11T16:23:01.628Z,6.55
2023-03-11T16:25:36.226Z,6.35
2023-03-11T16:28:03.062Z,6.16
2023-03-11T16:30:32.332Z,5.99
2023-03-11T16:32:59.359Z,5.86
2023-03-11T16:35:26.243Z,5.78
2023-03-11T16:37:53.263Z,5.56
2023-03-11T16:40:25.332Z,5.45
2023-03-11T16:42:56.075Z,5.26
2023-03-11T16:45:22.926Z,5.26
2023-03-11T16:47:49.569Z,5.14
2023-03-11T16:50:16.331Z,5.06
2023-03-11T16:52:42.922Z,4.86
2023-03-11T16:55:09.911Z,4.91
2023-03-11T16:57:37.908Z,4.78
2023-03-11T17:00:06.960Z,4.71
2023-03-11T17:02:33.610Z,4.71
2023-03-11T17:05:00.350Z,4.80
2023-03-11T17:07:27.398Z,4.70
2023-03-11T17:09:54.027Z,4.69
2023-03-11T17:12:20.885Z,4.67
2023-03-11T17:14:47.625Z,4.62
2023-03-11T17:17:14.265Z,4.49
2023-03-11T17:19:41.081Z,4.52
2023-03-11T17:22:08.530Z,4.46
2023-03-11T17:24:36.303Z,4.44
2023-03-11T17:27:03.540Z,4.39
2023-03-11T17:29:30.284Z,4.37
2023-03-11T17:31:57.406Z,4.33
2023-03-11T17:34:23.998Z,4.23
2023-03-11T17:36:50.685Z,4.17
2023-03-11T17:39:17.756Z,4.10
2023-03-11T17:41:44.736Z,4.06
2023-03-11T17:44:12.668Z,3.99
2023-03-11T17:46:44.706Z,3.94
2023-03-11T17:49:44.687Z,3.89
2023-03-11T17:52:05.706Z,3.61
2023-03-11T17:54:33.229Z,3.58
2023-03-11T17:57:08.417Z,3.63
2023-03-11T17:59:35.884Z,3.36
2023-03-11T18:02:03.196Z,3.60
2023-03-11T18:04:46.405Z,3.62
2023-03-11T18:07:13.833Z,3.70
2023-03-11T18:09:40.456Z,3.71
2023-03-11T18:12:07.145Z,3.56
2023-03-11T18:14:33.813Z,3.66
2023-03-11T18:17:00.561Z,3.64
2023-03-11T18:19:27.219Z,3.75
2023-03-11T18:21:53.868Z,3.61
2023-03-11T18:24:20.519Z,3.63
2023-03-11T18:26:47.188Z,3.68
2023-03-11T18:29:13.834Z,3.74
2023-03-11T18:31:40.528Z,3.80
2023-03-11T18:34:13.392Z,3.77
2023-03-11T18:36:41.485Z,3.89
2023-03-11T18:39:12.356Z,3.81
2023-03-11T18:41:39.051Z,3.88
2023-03-11T18:44:06.008Z,3.83
2023-03-11T18:46:32.877Z,3.84
2023-03-11T18:49:01.426Z,3.80
2023-03-11T18:51:31.094Z,3.73
2023-03-11T18:53:58.274Z,3.60
2023-03-11T18:56:24.904Z,3.64
2023-03-11T18:58:51.525Z,3.60
2023-03-11T19:01:20.847Z,3.34
2023-03-11T19:03:52.711Z,3.39
2023-03-11T19:06:19.921Z,3.39
2023-03-11T19:08:46.648Z,3.41
2023-03-11T19:11:17.122Z,3.39
2023-03-11T19:13:47.928Z,3.39
2023-03-11T19:16:17.468Z,3.26
2023-03-11T19:18:49.937Z,3.27
2023-03-11T19:21:17.409Z,3.38
2023-03-11T19:23:45.368Z,3.34
2023-03-11T19:26:12.798Z,3.49
2023-03-11T19:28:39.514Z,3.49
2023-03-11T19:31:06.376Z,3.43
2023-03-11T19:33:33.454Z,3.55
2023-03-11T19:36:03.183Z,3.51
2023-03-11T19:38:30.355Z,3.48
2023-03-11T19:41:20.860Z,3.32
2023-03-11T19:43:47.939Z,3.40
2023-03-11T19:46:17.899Z,3.30
2023-03-11T19:48:44.621Z,3.34
2023-03-11T19:51:14.555Z,3.44
2023-03-11T19:53:41.804Z,3.40
2023-03-11T19:56:09.466Z,3.59
2023-03-11T19:58:37.499Z,3.59
2023-03-11T20:01:04.395Z,3.53
2023-03-11T20:03:31.420Z,3.45
2023-03-11T20:06:04.812Z,3.42
2023-03-11T20:08:36.449Z,3.54
2023-03-11T20:11:04.537Z,3.38
2023-03-11T20:13:31.694Z,3.40
2023-03-11T20:16:08.625Z,3.49
2023-03-11T20:18:35.461Z,3.45
2023-03-11T20:21:11.629Z,3.34
2023-03-11T20:23:39.369Z,3.30
2023-03-11T20:26:14.535Z,3.25
2023-03-11T20:28:41.883Z,3.22
2023-03-11T20:31:12.554Z,3.31
2023-03-11T20:33:39.398Z,3.22
2023-03-11T20:36:15.196Z,3.25
2023-03-11T20:38:42.321Z,3.28
2023-03-11T20:41:09.763Z,3.23
2023-03-11T20:43:37.802Z,3.12
2023-03-11T20:46:05.513Z,3.17
2023-03-11T20:48:32.431Z,3.04
2023-03-11T20:51:04.479Z,2.99
2023-03-11T20:53:32.353Z,3.04
2023-03-11T20:56:04.863Z,3.10
2023-03-11T20:58:31.454Z,2.89
2023-03-11T21:00:58.100Z,3.18
2023-03-11T21:03:25.021Z,3.05
2023-03-11T21:05:52.133Z,3.04
2023-03-11T21:08:18.860Z,3.05
2023-03-11T21:10:45.508Z,3.03
2023-03-11T21:13:12.504Z,2.93
2023-03-11T21:15:39.187Z,2.94
2023-03-11T21:18:07.021Z,2.97
2023-03-11T21:20:33.713Z,2.90
2023-03-11T21:23:00.403Z,2.91
2023-03-11T21:25:28.504Z,2.90
2023-03-11T21:27:55.103Z,2.83
2023-03-11T21:30:21.798Z,2.83
2023-03-11T21:32:48.563Z,2.77
2023-03-11T21:35:15.523Z,2.83
2023-03-11T21:37:42.206Z,2.82
2023-03-11T21:40:09.852Z,2.79
2023-03-11T21:42:36.601Z,2.80
2023-03-11T21:45:03.378Z,2.85
2023-03-11T21:47:29.984Z,2.88
2023-03-11T21:49:56.862Z,2.84
2023-03-11T21:52:23.483Z,2.86
2023-03-11T21:54:50.125Z,2.83
2023-03-11T21:57:16.934Z,2.87
2023-03-11T21:59:43.616Z,2.87
2023-03-11T22:02:14.731Z,2.80
2023-03-11T22:04:42.685Z,2.74
2023-03-11T22:07:10.062Z,2.80
2023-03-11T22:09:36.840Z,2.78
2023-03-11T22:12:04.550Z,2.73
2023-03-11T22:14:31.359Z,2.61
2023-03-11T22:16:58.048Z,2.56
2023-03-11T22:19:25.060Z,2.50
2023-03-11T22:21:51.704Z,2.44
2023-03-11T22:24:18.453Z,2.43
2023-03-11T22:26:45.062Z,2.38
2023-03-11T22:29:13.651Z,2.26
2023-03-11T22:31:40.472Z,2.26
2023-03-11T22:34:07.186Z,2.08
2023-03-11T22:36:33.802Z,2.18
2023-03-11T22:39:02.593Z,2.14
2023-03-11T22:41:29.678Z,2.14
2023-03-11T22:43:56.349Z,2.10
2023-03-11T22:46:23.035Z,2.05
2023-03-11T22:48:49.642Z,2.00
2023-03-11T22:51:16.328Z,1.84
2023-03-11T22:53:43.292Z,1.78
2023-03-11T22:56:12.914Z,1.68
2023-03-11T22:58:39.733Z,1.59
2023-03-11T23:01:06.729Z,1.54
2023-03-11T23:03:34.642Z,1.42
2023-03-11T23:06:03.360Z,1.40
2023-03-11T23:08:30.251Z,1.31
2023-03-11T23:10:56.910Z,1.26
2023-03-11T23:13:23.508Z,1.34
2023-03-11T23:15:50.215Z,1.25
2023-03-11T23:18:16.910Z,1.30
2023-03-11T23:20:44.272Z,1.34
2023-03-11T23:23:11.547Z,1.34
2023-03-11T23:25:39.289Z,1.29
2023-03-11T23:28:06.276Z,1.31
2023-03-11T23:30:33.127Z,1.23
2023-03-11T23:33:00.371Z,1.21
2023-03-11T23:35:26.991Z,1.10
2023-03-11T23:37:53.621Z,1.12
2023-03-11T23:40:20.405Z,1.16
2023-03-11T23:42:47.020Z,1.22
2023-03-11T23:45:13.609Z,1.20
2023-03-11T23:47:41.360Z,1.25
2023-03-11T23:50:08.577Z,1.19
2023-03-11T23:52:35.258Z,1.19
2023-03-11T23:55:02.008Z,1.15
2023-03-11T23:57:28.618Z,1.16
2023-03-11T23:59:55.192Z,1.16
